sensor_id;sensor_type;location;lat;lon;timestamp;temperature;humidity
5962;DHT22;3007;50.770;0.250;2023-02-28T00:00:14;5.20;99.90
5962;DHT22;3007;50.770;0.250;2023-02-28T00:02:42;5.20;99.90
5962;DHT22;3007;50.770;0.250;2023-02-28T00:05:11;5.10;99.90
5962;DHT22;3007;50.770;0.250;2023-02-28T00:07:39;5.10;99.90
5962;DHT22;3007;50.770;0.250;2023-02-28T00:10:10;5.20;99.90
5962;DHT22;3007;50.770;0.250;2023-02-28T00:12:39;5.10;99.90
5962;DHT22;3007;50.770;0.250;2023-02-28T00:15:07;5.00;99.90
5962;DHT22;3007;50.770;0.250;2023-02-28T00:17:35;5.00;99.90
5962;DHT22;3007;50.770;0.250;2023-02-28T00:20:03;5.00;99.90
5962;DHT22;3007;50.770;0.250;2023-02-28T00:22:34;5.00;99.90
5962;DHT22;3007;50.770;0.250;2023-02-28T00:25:01;5.00;99.90
5962;DHT22;3007;50.770;0.250;2023-02-28T00:27:28;4.90;99.90
5962;DHT22;3007;50.770;0.250;2023-02-28T00:29:56;4.80;99.90
5962;DHT22;3007;50.770;0.250;2023-02-28T00:32:23;4.80;99.90
5962;DHT22;3007;50.770;0.250;2023-02-28T00:34:50;4.80;99.90
5962;DHT22;3007;50.770;0.250;2023-02-28T00:37:17;4.80;99.90
5962;DHT22;3007;50.770;0.250;2023-02-28T00:39:44;4.70;99.90
5962;DHT22;3007;50.770;0.250;2023-02-28T00:42:11;4.70;99.90
5962;DHT22;3007;50.770;0.250;2023-02-28T00:44:38;4.80;99.90
5962;DHT22;3007;50.770;0.250;2023-02-28T00:47:06;4.80;99.90
5962;DHT22;3007;50.770;0.250;2023-02-28T00:49:33;4.80;99.90
5962;DHT22;3007;50.770;0.250;2023-02-28T00:52:00;4.90;99.90
5962;DHT22;3007;50.770;0.250;2023-02-28T00:54:27;4.90;99.90
5962;DHT22;3007;50.770;0.250;2023-02-28T00:56:54;4.90;99.90
5962;DHT22;3007;50.770;0.250;2023-02-28T00:59:21;4.90;99.90
5962;DHT22;3007;50.770;0.250;2023-02-28T01:01:50;4.90;99.90
5962;DHT22;3007;50.770;0.250;2023-02-28T01:04:18;4.90;99.90
5962;DHT22;3007;50.770;0.250;2023-02-28T01:06:45;4.90;99.90
5962;DHT22;3007;50.770;0.250;2023-02-28T01:09:12;4.90;99.90
5962;DHT22;3007;50.770;0.250;2023-02-28T01:11:39;4.90;99.90
5962;DHT22;3007;50.770;0.250;2023-02-28T01:14:12;4.90;99.90
5962;DHT22;3007;50.770;0.250;2023-02-28T01:16:39;4.90;99.90
5962;DHT22;3007;50.770;0.250;2023-02-28T01:19:06;4.90;99.90
5962;DHT22;3007;50.770;0.250;2023-02-28T01:21:37;4.90;99.90
5962;DHT22;3007;50.770;0.250;2023-02-28T01:24:05;4.90;99.90
5962;DHT22;3007;50.770;0.250;2023-02-28T01:26:32;4.90;99.90
5962;DHT22;3007;50.770;0.250;2023-02-28T01:28:59;4.90;99.90
5962;DHT22;3007;50.770;0.250;2023-02-28T01:31:26;4.90;99.90
5962;DHT22;3007;50.770;0.250;2023-02-28T01:33:53;4.90;99.90
5962;DHT22;3007;50.770;0.250;2023-02-28T01:36:22;4.90;99.90
5962;DHT22;3007;50.770;0.250;2023-02-28T01:38:51;4.90;99.90
5962;DHT22;3007;50.770;0.250;2023-02-28T01:41:20;4.90;99.90
5962;DHT22;3007;50.770;0.250;2023-02-28T01:44:00;4.80;99.90
5962;DHT22;3007;50.770;0.250;2023-02-28T01:46:30;4.80;99.90
5962;DHT22;3007;50.770;0.250;2023-02-28T01:49:03;4.80;99.90
5962;DHT22;3007;50.770;0.250;2023-02-28T01:51:37;4.80;99.90
5962;DHT22;3007;50.770;0.250;2023-02-28T01:54:10;4.80;99.90
5962;DHT22;3007;50.770;0.250;2023-02-28T01:56:41;4.80;99.90
5962;DHT22;3007;50.770;0.250;2023-02-28T01:59:09;4.80;99.90
5962;DHT22;3007;50.770;0.250;2023-02-28T02:01:36;4.80;99.90
5962;DHT22;3007;50.770;0.250;2023-02-28T02:04:04;4.90;99.90
5962;DHT22;3007;50.770;0.250;2023-02-28T02:06:34;4.90;99.90
5962;DHT22;3007;50.770;0.250;2023-02-28T02:09:03;4.90;99.90
5962;DHT22;3007;50.770;0.250;2023-02-28T02:11:31;4.90;99.90
5962;DHT22;3007;50.770;0.250;2023-02-28T02:14:11;4.90;99.90
5962;DHT22;3007;50.770;0.250;2023-02-28T02:16:51;4.90;99.90
5962;DHT22;3007;50.770;0.250;2023-02-28T02:19:44;4.90;99.90
5962;DHT22;3007;50.770;0.250;2023-02-28T02:22:26;4.90;99.90
5962;DHT22;3007;50.770;0.250;2023-02-28T02:25:15;4.90;99.90
5962;DHT22;3007;50.770;0.250;2023-02-28T02:28:28;4.90;99.90
5962;DHT22;3007;50.770;0.250;2023-02-28T02:34:47;4.90;99.90
5962;DHT22;3007;50.770;0.250;2023-02-28T02:37:28;4.90;99.90
5962;DHT22;3007;50.770;0.250;2023-02-28T02:40:01;4.80;99.90
5962;DHT22;3007;50.770;0.250;2023-02-28T02:42:37;4.80;99.90
5962;DHT22;3007;50.770;0.250;2023-02-28T02:45:08;4.80;99.90
5962;DHT22;3007;50.770;0.250;2023-02-28T02:47:37;4.80;99.90
5962;DHT22;3007;50.770;0.250;2023-02-28T02:50:11;4.80;99.90
5962;DHT22;3007;50.770;0.250;2023-02-28T02:52:47;4.80;99.90
5962;DHT22;3007;50.770;0.250;2023-02-28T02:55:15;4.70;99.90
5962;DHT22;3007;50.770;0.250;2023-02-28T02:57:47;4.70;99.90
5962;DHT22;3007;50.770;0.250;2023-02-28T03:00:18;4.70;99.90
5962;DHT22;3007;50.770;0.250;2023-02-28T03:02:47;4.70;99.90
5962;DHT22;3007;50.770;0.250;2023-02-28T03:05:20;4.70;99.90
5962;DHT22;3007;50.770;0.250;2023-02-28T03:07:48;4.70;99.90
5962;DHT22;3007;50.770;0.250;2023-02-28T03:10:37;4.70;99.90
5962;DHT22;3007;50.770;0.250;2023-02-28T03:13:19;4.70;99.90
5962;DHT22;3007;50.770;0.250;2023-02-28T03:16:01;4.70;99.90
5962;DHT22;3007;50.770;0.250;2023-02-28T03:18:34;4.70;99.90
5962;DHT22;3007;50.770;0.250;2023-02-28T03:21:13;4.60;99.90
5962;DHT22;3007;50.770;0.250;2023-02-28T03:23:48;4.60;99.90
5962;DHT22;3007;50.770;0.250;2023-02-28T03:26:20;4.70;99.90
5962;DHT22;3007;50.770;0.250;2023-02-28T03:28:52;4.60;99.90
5962;DHT22;3007;50.770;0.250;2023-02-28T03:31:26;4.60;99.90
5962;DHT22;3007;50.770;0.250;2023-02-28T03:33:59;4.60;99.90
5962;DHT22;3007;50.770;0.250;2023-02-28T03:36:30;4.60;99.90
5962;DHT22;3007;50.770;0.250;2023-02-28T03:39:04;4.60;99.90
5962;DHT22;3007;50.770;0.250;2023-02-28T03:41:40;4.50;99.90
5962;DHT22;3007;50.770;0.250;2023-02-28T03:44:13;4.50;99.90
5962;DHT22;3007;50.770;0.250;2023-02-28T03:46:47;4.50;99.90
5962;DHT22;3007;50.770;0.250;2023-02-28T03:49:18;4.40;99.90
5962;DHT22;3007;50.770;0.250;2023-02-28T03:51:49;4.50;99.90
5962;DHT22;3007;50.770;0.250;2023-02-28T03:54:19;4.50;99.90
5962;DHT22;3007;50.770;0.250;2023-02-28T03:56:51;4.50;99.90
5962;DHT22;3007;50.770;0.250;2023-02-28T03:59:23;4.50;99.90
5962;DHT22;3007;50.770;0.250;2023-02-28T04:01:52;4.40;99.90
5962;DHT22;3007;50.770;0.250;2023-02-28T04:04:21;4.50;99.90
5962;DHT22;3007;50.770;0.250;2023-02-28T04:06:52;4.40;99.90
5962;DHT22;3007;50.770;0.250;2023-02-28T04:09:19;4.40;99.90
5962;DHT22;3007;50.770;0.250;2023-02-28T04:11:50;4.50;99.90
5962;DHT22;3007;50.770;0.250;2023-02-28T04:14:18;4.40;99.90
5962;DHT22;3007;50.770;0.250;2023-02-28T04:16:45;4.50;99.90
5962;DHT22;3007;50.770;0.250;2023-02-28T04:19:13;4.50;99.90
5962;DHT22;3007;50.770;0.250;2023-02-28T04:21:42;4.50;99.90
5962;DHT22;3007;50.770;0.250;2023-02-28T04:24:13;4.40;99.90
5962;DHT22;3007;50.770;0.250;2023-02-28T04:26:41;4.40;99.90
5962;DHT22;3007;50.770;0.250;2023-02-28T04:29:10;4.40;99.90
5962;DHT22;3007;50.770;0.250;2023-02-28T04:31:37;4.50;99.90
5962;DHT22;3007;50.770;0.250;2023-02-28T04:34:04;4.40;99.90
5962;DHT22;3007;50.770;0.250;2023-02-28T04:36:31;4.50;99.90
5962;DHT22;3007;50.770;0.250;2023-02-28T04:38:58;4.50;99.90
5962;DHT22;3007;50.770;0.250;2023-02-28T04:41:27;4.50;99.90
5962;DHT22;3007;50.770;0.250;2023-02-28T04:43:54;4.40;99.90
5962;DHT22;3007;50.770;0.250;2023-02-28T04:46:22;4.50;99.90
5962;DHT22;3007;50.770;0.250;2023-02-28T04:48:49;4.40;99.90
5962;DHT22;3007;50.770;0.250;2023-02-28T04:51:17;4.50;99.90
5962;DHT22;3007;50.770;0.250;2023-02-28T04:53:46;4.50;99.90
5962;DHT22;3007;50.770;0.250;2023-02-28T04:56:14;4.50;99.90
5962;DHT22;3007;50.770;0.250;2023-02-28T04:58:43;4.50;99.90
5962;DHT22;3007;50.770;0.250;2023-02-28T05:01:18;4.50;99.90
5962;DHT22;3007;50.770;0.250;2023-02-28T05:03:45;4.50;99.90
5962;DHT22;3007;50.770;0.250;2023-02-28T05:06:12;4.60;99.90
5962;DHT22;3007;50.770;0.250;2023-02-28T05:08:40;4.60;99.90
5962;DHT22;3007;50.770;0.250;2023-02-28T05:11:14;4.60;99.90
5962;DHT22;3007;50.770;0.250;2023-02-28T05:13:42;4.50;99.90
5962;DHT22;3007;50.770;0.250;2023-02-28T05:16:09;4.60;99.90
5962;DHT22;3007;50.770;0.250;2023-02-28T05:18:36;4.50;99.90
5962;DHT22;3007;50.770;0.250;2023-02-28T05:21:04;4.50;99.90
5962;DHT22;3007;50.770;0.250;2023-02-28T05:23:31;4.40;99.90
5962;DHT22;3007;50.770;0.250;2023-02-28T05:25:58;4.30;99.90
5962;DHT22;3007;50.770;0.250;2023-02-28T05:28:24;4.30;99.90
5962;DHT22;3007;50.770;0.250;2023-02-28T05:30:53;4.20;99.90
5962;DHT22;3007;50.770;0.250;2023-02-28T05:33:19;4.20;99.90
5962;DHT22;3007;50.770;0.250;2023-02-28T05:35:46;4.20;99.90
5962;DHT22;3007;50.770;0.250;2023-02-28T05:38:13;4.20;99.90
5962;DHT22;3007;50.770;0.250;2023-02-28T05:40:40;4.20;99.90
5962;DHT22;3007;50.770;0.250;2023-02-28T05:43:10;4.20;99.90
5962;DHT22;3007;50.770;0.250;2023-02-28T05:45:37;4.20;99.90
5962;DHT22;3007;50.770;0.250;2023-02-28T05:48:06;4.20;99.90
5962;DHT22;3007;50.770;0.250;2023-02-28T05:50:33;4.30;99.90
5962;DHT22;3007;50.770;0.250;2023-02-28T05:52:59;4.30;99.90
5962;DHT22;3007;50.770;0.250;2023-02-28T05:55:26;4.30;99.90
5962;DHT22;3007;50.770;0.250;2023-02-28T05:57:53;4.20;99.90
5962;DHT22;3007;50.770;0.250;2023-02-28T06:00:21;4.30;99.90
5962;DHT22;3007;50.770;0.250;2023-02-28T06:02:48;4.30;99.90
5962;DHT22;3007;50.770;0.250;2023-02-28T06:05:18;4.30;99.90
5962;DHT22;3007;50.770;0.250;2023-02-28T06:07:45;4.30;99.90
5962;DHT22;3007;50.770;0.250;2023-02-28T06:10:13;4.30;99.90
5962;DHT22;3007;50.770;0.250;2023-02-28T06:12:40;4.30;99.90
5962;DHT22;3007;50.770;0.250;2023-02-28T06:15:12;4.20;99.90
5962;DHT22;3007;50.770;0.250;2023-02-28T06:17:39;4.30;99.90
5962;DHT22;3007;50.770;0.250;2023-02-28T06:20:07;4.30;99.90
5962;DHT22;3007;50.770;0.250;2023-02-28T06:22:36;4.20;99.90
5962;DHT22;3007;50.770;0.250;2023-02-28T06:25:04;4.20;99.90
5962;DHT22;3007;50.770;0.250;2023-02-28T06:27:31;4.20;99.90
5962;DHT22;3007;50.770;0.250;2023-02-28T06:29:58;4.20;99.90
5962;DHT22;3007;50.770;0.250;2023-02-28T06:32:25;4.20;99.90
5962;DHT22;3007;50.770;0.250;2023-02-28T06:34:52;4.20;99.90
5962;DHT22;3007;50.770;0.250;2023-02-28T06:37:19;4.20;99.90
5962;DHT22;3007;50.770;0.250;2023-02-28T06:39:47;4.20;99.90
5962;DHT22;3007;50.770;0.250;2023-02-28T06:42:14;4.20;99.90
5962;DHT22;3007;50.770;0.250;2023-02-28T06:44:41;4.20;99.90
5962;DHT22;3007;50.770;0.250;2023-02-28T06:47:09;4.20;99.90
5962;DHT22;3007;50.770;0.250;2023-02-28T06:49:36;4.20;99.90
5962;DHT22;3007;50.770;0.250;2023-02-28T06:52:04;4.10;99.90
5962;DHT22;3007;50.770;0.250;2023-02-28T06:54:31;4.10;99.90
5962;DHT22;3007;50.770;0.250;2023-02-28T06:56:59;4.10;99.90
5962;DHT22;3007;50.770;0.250;2023-02-28T06:59:27;4.10;99.90
5962;DHT22;3007;50.770;0.250;2023-02-28T07:01:53;4.10;99.90
5962;DHT22;3007;50.770;0.250;2023-02-28T07:04:21;4.10;99.90
5962;DHT22;3007;50.770;0.250;2023-02-28T07:06:48;4.00;99.90
5962;DHT22;3007;50.770;0.250;2023-02-28T07:09:15;4.10;99.90
5962;DHT22;3007;50.770;0.250;2023-02-28T07:11:42;4.10;99.90
5962;DHT22;3007;50.770;0.250;2023-02-28T07:14:10;4.10;99.90
5962;DHT22;3007;50.770;0.250;2023-02-28T07:16:37;4.10;99.90
5962;DHT22;3007;50.770;0.250;2023-02-28T07:19:04;4.20;99.90
5962;DHT22;3007;50.770;0.250;2023-02-28T07:21:31;4.20;99.90
5962;DHT22;3007;50.770;0.250;2023-02-28T07:23:58;4.30;99.90
5962;DHT22;3007;50.770;0.250;2023-02-28T07:26:25;4.30;99.90
5962;DHT22;3007;50.770;0.250;2023-02-28T07:28:52;4.30;99.90
5962;DHT22;3007;50.770;0.250;2023-02-28T07:31:21;4.40;99.90
5962;DHT22;3007;50.770;0.250;2023-02-28T07:33:48;4.40;99.90
5962;DHT22;3007;50.770;0.250;2023-02-28T07:36:16;4.40;99.90
5962;DHT22;3007;50.770;0.250;2023-02-28T07:38:45;4.50;99.90
5962;DHT22;3007;50.770;0.250;2023-02-28T07:41:14;4.50;99.90
5962;DHT22;3007;50.770;0.250;2023-02-28T07:43:41;4.60;99.90
5962;DHT22;3007;50.770;0.250;2023-02-28T07:46:09;4.60;99.90
5962;DHT22;3007;50.770;0.250;2023-02-28T07:48:38;4.60;99.90
5962;DHT22;3007;50.770;0.250;2023-02-28T07:51:05;4.70;99.90
5962;DHT22;3007;50.770;0.250;2023-02-28T07:53:32;4.60;99.90
5962;DHT22;3007;50.770;0.250;2023-02-28T07:56:00;4.70;99.90
5962;DHT22;3007;50.770;0.250;2023-02-28T07:58:28;4.80;99.90
5962;DHT22;3007;50.770;0.250;2023-02-28T08:00:55;4.90;99.90
5962;DHT22;3007;50.770;0.250;2023-02-28T08:03:23;4.90;99.90
5962;DHT22;3007;50.770;0.250;2023-02-28T08:05:51;5.00;99.90
5962;DHT22;3007;50.770;0.250;2023-02-28T08:08:19;5.00;99.90
5962;DHT22;3007;50.770;0.250;2023-02-28T08:10:46;5.10;99.90
5962;DHT22;3007;50.770;0.250;2023-02-28T08:13:13;5.10;99.90
5962;DHT22;3007;50.770;0.250;2023-02-28T08:15:40;5.10;99.90
5962;DHT22;3007;50.770;0.250;2023-02-28T08:18:08;5.10;99.90
5962;DHT22;3007;50.770;0.250;2023-02-28T08:20:35;5.20;99.90
5962;DHT22;3007;50.770;0.250;2023-02-28T08:23:03;5.20;99.90
5962;DHT22;3007;50.770;0.250;2023-02-28T08:25:30;5.20;99.90
5962;DHT22;3007;50.770;0.250;2023-02-28T08:27:57;5.10;99.90
5962;DHT22;3007;50.770;0.250;2023-02-28T08:30:24;5.10;99.90
5962;DHT22;3007;50.770;0.250;2023-02-28T08:32:51;5.10;99.90
5962;DHT22;3007;50.770;0.250;2023-02-28T08:35:18;5.10;99.90
5962;DHT22;3007;50.770;0.250;2023-02-28T08:37:44;5.10;99.90
5962;DHT22;3007;50.770;0.250;2023-02-28T08:40:15;5.20;99.90
5962;DHT22;3007;50.770;0.250;2023-02-28T08:42:43;5.20;99.90
5962;DHT22;3007;50.770;0.250;2023-02-28T08:45:11;5.30;99.90
5962;DHT22;3007;50.770;0.250;2023-02-28T08:47:38;5.30;99.90
5962;DHT22;3007;50.770;0.250;2023-02-28T08:50:05;5.20;99.90
5962;DHT22;3007;50.770;0.250;2023-02-28T08:52:32;5.30;99.90
5962;DHT22;3007;50.770;0.250;2023-02-28T08:54:59;5.40;99.90
5962;DHT22;3007;50.770;0.250;2023-02-28T08:57:28;5.40;99.90
5962;DHT22;3007;50.770;0.250;2023-02-28T08:59:55;5.40;99.90
5962;DHT22;3007;50.770;0.250;2023-02-28T09:02:22;5.40;99.90
5962;DHT22;3007;50.770;0.250;2023-02-28T09:04:49;5.50;99.90
5962;DHT22;3007;50.770;0.250;2023-02-28T09:07:16;5.70;99.90
5962;DHT22;3007;50.770;0.250;2023-02-28T09:09:43;5.80;99.90
5962;DHT22;3007;50.770;0.250;2023-02-28T09:12:20;5.90;99.90
5962;DHT22;3007;50.770;0.250;2023-02-28T09:14:49;5.90;99.90
5962;DHT22;3007;50.770;0.250;2023-02-28T09:17:16;6.10;99.90
5962;DHT22;3007;50.770;0.250;2023-02-28T09:19:43;6.20;99.90
5962;DHT22;3007;50.770;0.250;2023-02-28T09:22:10;6.10;99.90
5962;DHT22;3007;50.770;0.250;2023-02-28T09:24:38;6.10;99.90
5962;DHT22;3007;50.770;0.250;2023-02-28T09:27:05;6.10;99.90
5962;DHT22;3007;50.770;0.250;2023-02-28T09:29:33;6.00;99.90
5962;DHT22;3007;50.770;0.250;2023-02-28T09:32:02;6.00;99.90
5962;DHT22;3007;50.770;0.250;2023-02-28T09:34:31;6.10;99.90
5962;DHT22;3007;50.770;0.250;2023-02-28T09:36:58;6.20;99.90
5962;DHT22;3007;50.770;0.250;2023-02-28T09:39:25;6.20;99.90
5962;DHT22;3007;50.770;0.250;2023-02-28T09:41:56;6.20;99.90
5962;DHT22;3007;50.770;0.250;2023-02-28T09:44:28;6.20;99.90
5962;DHT22;3007;50.770;0.250;2023-02-28T09:47:00;6.20;99.90
5962;DHT22;3007;50.770;0.250;2023-02-28T09:49:35;6.30;99.90
5962;DHT22;3007;50.770;0.250;2023-02-28T09:52:05;6.30;99.90
5962;DHT22;3007;50.770;0.250;2023-02-28T09:54:35;6.30;99.90
5962;DHT22;3007;50.770;0.250;2023-02-28T09:57:07;6.30;99.90
5962;DHT22;3007;50.770;0.250;2023-02-28T09:59:53;6.40;99.90
5962;DHT22;3007;50.770;0.250;2023-02-28T10:02:41;6.50;99.90
5962;DHT22;3007;50.770;0.250;2023-02-28T10:05:16;6.60;99.90
5962;DHT22;3007;50.770;0.250;2023-02-28T10:07:55;6.70;99.90
5962;DHT22;3007;50.770;0.250;2023-02-28T10:10:27;6.90;99.90
5962;DHT22;3007;50.770;0.250;2023-02-28T10:13:02;7.00;99.90
5962;DHT22;3007;50.770;0.250;2023-02-28T10:15:32;7.10;99.90
5962;DHT22;3007;50.770;0.250;2023-02-28T10:18:05;7.10;99.90
5962;DHT22;3007;50.770;0.250;2023-02-28T10:20:37;7.20;99.90
5962;DHT22;3007;50.770;0.250;2023-02-28T10:23:11;7.20;99.90
5962;DHT22;3007;50.770;0.250;2023-02-28T10:25:40;7.20;99.90
5962;DHT22;3007;50.770;0.250;2023-02-28T10:28:15;7.20;99.90
5962;DHT22;3007;50.770;0.250;2023-02-28T10:30:46;7.10;99.90
5962;DHT22;3007;50.770;0.250;2023-02-28T10:33:23;7.20;99.90
5962;DHT22;3007;50.770;0.250;2023-02-28T10:35:52;7.30;99.90
5962;DHT22;3007;50.770;0.250;2023-02-28T10:38:22;7.20;99.90
5962;DHT22;3007;50.770;0.250;2023-02-28T10:40:50;7.20;99.90
5962;DHT22;3007;50.770;0.250;2023-02-28T10:43:22;7.20;99.90
5962;DHT22;3007;50.770;0.250;2023-02-28T10:45:58;7.20;99.90
5962;DHT22;3007;50.770;0.250;2023-02-28T10:48:37;7.20;99.90
5962;DHT22;3007;50.770;0.250;2023-02-28T10:51:08;7.40;99.90
5962;DHT22;3007;50.770;0.250;2023-02-28T10:53:45;7.50;99.90
5962;DHT22;3007;50.770;0.250;2023-02-28T10:56:16;7.50;99.90
5962;DHT22;3007;50.770;0.250;2023-02-28T10:58:49;7.50;99.90
5962;DHT22;3007;50.770;0.250;2023-02-28T11:01:19;7.60;99.90
5962;DHT22;3007;50.770;0.250;2023-02-28T11:03:47;7.70;99.90
5962;DHT22;3007;50.770;0.250;2023-02-28T11:06:17;7.60;99.90
5962;DHT22;3007;50.770;0.250;2023-02-28T11:08:50;7.70;99.90
5962;DHT22;3007;50.770;0.250;2023-02-28T11:11:19;7.70;99.90
5962;DHT22;3007;50.770;0.250;2023-02-28T11:13:50;7.70;99.90
5962;DHT22;3007;50.770;0.250;2023-02-28T11:16:18;7.70;99.90
5962;DHT22;3007;50.770;0.250;2023-02-28T11:18:49;7.80;99.90
5962;DHT22;3007;50.770;0.250;2023-02-28T11:21:21;7.70;99.90
5962;DHT22;3007;50.770;0.250;2023-02-28T11:23:51;7.60;99.90
5962;DHT22;3007;50.770;0.250;2023-02-28T11:26:34;7.80;99.90
5962;DHT22;3007;50.770;0.250;2023-02-28T11:29:08;7.90;99.90
5962;DHT22;3007;50.770;0.250;2023-02-28T11:31:36;7.90;99.90
5962;DHT22;3007;50.770;0.250;2023-02-28T11:34:23;8.10;99.90
5962;DHT22;3007;50.770;0.250;2023-02-28T11:36:53;8.10;99.90
5962;DHT22;3007;50.770;0.250;2023-02-28T11:39:23;8.10;99.90
5962;DHT22;3007;50.770;0.250;2023-02-28T11:42:07;8.20;99.90
5962;DHT22;3007;50.770;0.250;2023-02-28T11:44:47;8.20;99.90
5962;DHT22;3007;50.770;0.250;2023-02-28T11:47:29;8.30;99.90
5962;DHT22;3007;50.770;0.250;2023-02-28T11:50:13;8.30;99.90
5962;DHT22;3007;50.770;0.250;2023-02-28T11:52:47;8.40;99.90
5962;DHT22;3007;50.770;0.250;2023-02-28T11:55:18;8.40;99.90
5962;DHT22;3007;50.770;0.250;2023-02-28T11:57:59;8.30;99.90
5962;DHT22;3007;50.770;0.250;2023-02-28T12:00:45;8.20;99.90
5962;DHT22;3007;50.770;0.250;2023-02-28T12:03:26;8.10;99.90
5962;DHT22;3007;50.770;0.250;2023-02-28T12:06:01;8.00;99.90
5962;DHT22;3007;50.770;0.250;2023-02-28T12:08:44;8.00;99.90
5962;DHT22;3007;50.770;0.250;2023-02-28T12:11:19;8.00;99.90
5962;DHT22;3007;50.770;0.250;2023-02-28T12:14:14;8.00;99.90
5962;DHT22;3007;50.770;0.250;2023-02-28T12:16:53;7.90;99.90
5962;DHT22;3007;50.770;0.250;2023-02-28T12:19:25;8.00;99.90
5962;DHT22;3007;50.770;0.250;2023-02-28T12:22:06;7.90;99.90
5962;DHT22;3007;50.770;0.250;2023-02-28T12:25:05;8.10;99.90
5962;DHT22;3007;50.770;0.250;2023-02-28T12:27:42;8.20;99.90
5962;DHT22;3007;50.770;0.250;2023-02-28T12:30:17;8.20;99.90
5962;DHT22;3007;50.770;0.250;2023-02-28T12:32:48;8.20;99.90
5962;DHT22;3007;50.770;0.250;2023-02-28T12:35:19;8.20;99.90
5962;DHT22;3007;50.770;0.250;2023-02-28T12:37:52;8.30;99.90
5962;DHT22;3007;50.770;0.250;2023-02-28T12:40:41;8.40;99.90
5962;DHT22;3007;50.770;0.250;2023-02-28T12:43:10;8.50;99.90
5962;DHT22;3007;50.770;0.250;2023-02-28T12:45:42;8.40;99.90
5962;DHT22;3007;50.770;0.250;2023-02-28T12:48:15;8.50;99.90
5962;DHT22;3007;50.770;0.250;2023-02-28T12:50:45;8.50;99.90
5962;DHT22;3007;50.770;0.250;2023-02-28T12:53:18;8.40;99.90
5962;DHT22;3007;50.770;0.250;2023-02-28T12:55:57;8.40;99.90
5962;DHT22;3007;50.770;0.250;2023-02-28T12:58:31;8.40;99.90
5962;DHT22;3007;50.770;0.250;2023-02-28T13:01:15;8.50;99.90
5962;DHT22;3007;50.770;0.250;2023-02-28T13:04:08;8.60;99.90
5962;DHT22;3007;50.770;0.250;2023-02-28T13:06:58;8.80;99.90
5962;DHT22;3007;50.770;0.250;2023-02-28T13:09:27;8.80;99.90
5962;DHT22;3007;50.770;0.250;2023-02-28T13:11:58;8.60;99.90
5962;DHT22;3007;50.770;0.250;2023-02-28T13:14:28;8.50;99.90
5962;DHT22;3007;50.770;0.250;2023-02-28T13:16:59;8.40;99.90
5962;DHT22;3007;50.770;0.250;2023-02-28T13:19:28;8.30;99.90
5962;DHT22;3007;50.770;0.250;2023-02-28T13:21:57;8.20;99.90
5962;DHT22;3007;50.770;0.250;2023-02-28T13:24:44;8.10;99.90
5962;DHT22;3007;50.770;0.250;2023-02-28T13:27:35;8.10;99.90
5962;DHT22;3007;50.770;0.250;2023-02-28T13:33:22;8.10;99.90
5962;DHT22;3007;50.770;0.250;2023-02-28T13:36:08;7.90;99.90
5962;DHT22;3007;50.770;0.250;2023-02-28T13:38:38;7.80;99.90
5962;DHT22;3007;50.770;0.250;2023-02-28T13:41:44;7.70;99.90
5962;DHT22;3007;50.770;0.250;2023-02-28T13:44:14;7.50;99.90
5962;DHT22;3007;50.770;0.250;2023-02-28T13:49:46;7.20;99.90
5962;DHT22;3007;50.770;0.250;2023-02-28T13:52:17;7.20;99.90
5962;DHT22;3007;50.770;0.250;2023-02-28T13:55:15;7.20;99.90
5962;DHT22;3007;50.770;0.250;2023-02-28T13:58:08;7.20;99.90
5962;DHT22;3007;50.770;0.250;2023-02-28T14:00:54;7.10;99.90
5962;DHT22;3007;50.770;0.250;2023-02-28T14:06:23;7.30;99.90
5962;DHT22;3007;50.770;0.250;2023-02-28T14:08:58;7.30;99.90
5962;DHT22;3007;50.770;0.250;2023-02-28T14:11:31;7.40;99.90
5962;DHT22;3007;50.770;0.250;2023-02-28T14:13:59;7.40;99.90
5962;DHT22;3007;50.770;0.250;2023-02-28T14:16:35;7.50;99.90
5962;DHT22;3007;50.770;0.250;2023-02-28T14:19:11;7.50;99.90
5962;DHT22;3007;50.770;0.250;2023-02-28T14:21:43;7.60;99.90
5962;DHT22;3007;50.770;0.250;2023-02-28T14:27:24;7.70;99.90
5962;DHT22;3007;50.770;0.250;2023-02-28T14:30:36;7.70;99.90
5962;DHT22;3007;50.770;0.250;2023-02-28T14:33:30;7.80;99.90
5962;DHT22;3007;50.770;0.250;2023-02-28T14:36:06;7.90;99.90
5962;DHT22;3007;50.770;0.250;2023-02-28T14:38:37;7.90;99.90
5962;DHT22;3007;50.770;0.250;2023-02-28T14:41:19;8.00;99.90
5962;DHT22;3007;50.770;0.250;2023-02-28T14:43:55;8.00;99.90
5962;DHT22;3007;50.770;0.250;2023-02-28T14:46:25;8.00;99.90
5962;DHT22;3007;50.770;0.250;2023-02-28T14:48:54;7.90;99.90
5962;DHT22;3007;50.770;0.250;2023-02-28T14:51:23;8.00;99.90
5962;DHT22;3007;50.770;0.250;2023-02-28T14:53:52;8.00;99.90
5962;DHT22;3007;50.770;0.250;2023-02-28T14:56:25;8.00;99.90
5962;DHT22;3007;50.770;0.250;2023-02-28T14:58:54;8.00;99.90
5962;DHT22;3007;50.770;0.250;2023-02-28T15:01:23;8.00;99.90
5962;DHT22;3007;50.770;0.250;2023-02-28T15:04:00;7.90;99.90
5962;DHT22;3007;50.770;0.250;2023-02-28T15:06:28;7.80;99.90
5962;DHT22;3007;50.770;0.250;2023-02-28T15:09:17;7.90;99.90
5962;DHT22;3007;50.770;0.250;2023-02-28T15:11:47;8.00;99.90
5962;DHT22;3007;50.770;0.250;2023-02-28T15:14:18;7.90;99.90
5962;DHT22;3007;50.770;0.250;2023-02-28T15:16:48;8.00;99.90
5962;DHT22;3007;50.770;0.250;2023-02-28T15:19:21;8.00;99.90
5962;DHT22;3007;50.770;0.250;2023-02-28T15:21:52;8.00;99.90
5962;DHT22;3007;50.770;0.250;2023-02-28T15:24:27;8.00;99.90
5962;DHT22;3007;50.770;0.250;2023-02-28T15:26:58;7.80;99.90
5962;DHT22;3007;50.770;0.250;2023-02-28T15:29:28;7.70;99.90
5962;DHT22;3007;50.770;0.250;2023-02-28T15:32:00;7.60;99.90
5962;DHT22;3007;50.770;0.250;2023-02-28T15:34:34;7.60;99.90
5962;DHT22;3007;50.770;0.250;2023-02-28T15:37:01;7.60;99.90
5962;DHT22;3007;50.770;0.250;2023-02-28T15:39:29;7.50;99.90
5962;DHT22;3007;50.770;0.250;2023-02-28T15:42:10;7.40;99.90
5962;DHT22;3007;50.770;0.250;2023-02-28T15:44:38;7.40;99.90
5962;DHT22;3007;50.770;0.250;2023-02-28T15:47:14;7.50;99.90
5962;DHT22;3007;50.770;0.250;2023-02-28T15:49:48;7.40;99.90
5962;DHT22;3007;50.770;0.250;2023-02-28T15:52:21;7.40;99.90
5962;DHT22;3007;50.770;0.250;2023-02-28T15:54:52;7.40;99.90
5962;DHT22;3007;50.770;0.250;2023-02-28T15:57:21;7.30;99.90
5962;DHT22;3007;50.770;0.250;2023-02-28T15:59:51;7.30;99.90
5962;DHT22;3007;50.770;0.250;2023-02-28T16:02:20;7.30;99.90
5962;DHT22;3007;50.770;0.250;2023-02-28T16:05:00;7.40;99.90
5962;DHT22;3007;50.770;0.250;2023-02-28T16:07:28;7.30;99.90
5962;DHT22;3007;50.770;0.250;2023-02-28T16:09:55;7.30;99.90
5962;DHT22;3007;50.770;0.250;2023-02-28T16:12:28;7.30;99.90
5962;DHT22;3007;50.770;0.250;2023-02-28T16:14:59;7.20;99.90
5962;DHT22;3007;50.770;0.250;2023-02-28T16:17:31;7.20;99.90
5962;DHT22;3007;50.770;0.250;2023-02-28T16:20:00;7.10;99.90
5962;DHT22;3007;50.770;0.250;2023-02-28T16:22:28;7.10;99.90
5962;DHT22;3007;50.770;0.250;2023-02-28T16:24:55;7.10;99.90
5962;DHT22;3007;50.770;0.250;2023-02-28T16:27:29;7.10;99.90
5962;DHT22;3007;50.770;0.250;2023-02-28T16:29:57;7.10;99.90
5962;DHT22;3007;50.770;0.250;2023-02-28T16:32:24;7.00;99.90
5962;DHT22;3007;50.770;0.250;2023-02-28T16:34:50;7.00;99.90
5962;DHT22;3007;50.770;0.250;2023-02-28T16:37:20;7.00;99.90
5962;DHT22;3007;50.770;0.250;2023-02-28T16:39:47;7.00;99.90
5962;DHT22;3007;50.770;0.250;2023-02-28T16:42:17;7.00;99.90
5962;DHT22;3007;50.770;0.250;2023-02-28T16:44:47;6.90;99.90
5962;DHT22;3007;50.770;0.250;2023-02-28T16:47:14;6.90;99.90
5962;DHT22;3007;50.770;0.250;2023-02-28T16:49:41;6.90;99.90
5962;DHT22;3007;50.770;0.250;2023-02-28T16:52:09;6.90;99.90
5962;DHT22;3007;50.770;0.250;2023-02-28T16:54:38;6.80;99.90
5962;DHT22;3007;50.770;0.250;2023-02-28T16:57:07;6.70;99.90
5962;DHT22;3007;50.770;0.250;2023-02-28T16:59:41;6.70;99.90